createdAt,value
2023-08-11T00:00:56.349Z,51.14
2023-08-11T00:06:00.567Z,51.04
2023-08-11T00:11:02.744Z,51.14
2023-08-11T00:16:09.818Z,51.19
2023-08-11T00:21:20.747Z,51.22
2023-08-11T00:26:33.872Z,49.73
2023-08-11T00:31:37.083Z,51.15
2023-08-11T00:36:43.424Z,50.72
2023-08-11T00:41:54.521Z,50.71
2023-08-11T00:47:00.514Z,51.17
2023-08-11T00:52:07.603Z,51.03
2023-08-11T00:57:12.345Z,51.22
2023-08-11T01:02:15.584Z,51.61
2023-08-11T01:07:35.163Z,50.44
2023-08-11T01:12:53.820Z,50.65
2023-08-11T01:21:12.971Z,50.89
2023-08-11T01:26:18.294Z,51.67
2023-08-11T01:31:20.512Z,51.52
2023-08-11T01:36:24.370Z,51.42
2023-08-11T01:41:30.607Z,51.39
2023-08-11T01:46:39.344Z,51.48
2023-08-11T01:51:44.724Z,51.21
2023-08-11T01:56:49.396Z,51.48
2023-08-11T02:01:51.643Z,51.45
2023-08-11T02:06:58.608Z,51.50
2023-08-11T02:12:03.361Z,51.44
2023-08-11T02:17:18.866Z,51.45
2023-08-11T02:22:21.058Z,51.59
2023-08-11T02:27:23.289Z,51.76
2023-08-11T02:32:27.512Z,52.17
2023-08-11T02:37:31.981Z,52.38
2023-08-11T02:42:39.800Z,52.42
2023-08-11T02:47:44.099Z,52.59
2023-08-11T02:52:47.621Z,53.10
2023-08-11T02:57:49.709Z,53.19
2023-08-11T03:02:51.901Z,53.26
2023-08-11T03:07:56.901Z,53.38
2023-08-11T03:13:01.047Z,53.56
2023-08-11T03:18:04.335Z,53.56
2023-08-11T03:23:06.799Z,53.53
2023-08-11T03:28:17.675Z,53.98
2023-08-11T03:33:21.813Z,54.09
2023-08-11T03:38:39.253Z,54.07
2023-08-11T03:43:43.571Z,54.19
2023-08-11T03:48:51.042Z,54.16
2023-08-11T03:53:59.705Z,54.52
2023-08-11T03:59:05.964Z,54.49
2023-08-11T04:04:11.169Z,54.37
2023-08-11T04:09:18.330Z,54.42
2023-08-11T04:14:26.595Z,54.70
2023-08-11T04:19:32.950Z,54.83
2023-08-11T04:24:36.827Z,54.73
2023-08-11T04:29:39.320Z,55.15
2023-08-11T04:34:42.624Z,55.10
2023-08-11T04:41:19.563Z,55.39
2023-08-11T04:46:21.911Z,55.31
2023-08-11T04:51:24.200Z,55.60
2023-08-11T04:56:26.395Z,55.94
2023-08-11T05:01:28.603Z,55.77
2023-08-11T05:06:30.947Z,56.05
2023-08-11T05:11:33.079Z,55.96
2023-08-11T05:16:35.483Z,56.49
2023-08-11T05:21:40.725Z,56.46
2023-08-11T05:26:43.487Z,56.58
2023-08-11T05:31:45.889Z,56.31
2023-08-11T05:36:47.956Z,56.55
2023-08-11T05:42:27.627Z,56.43
2023-08-11T05:51:19.624Z,56.52
2023-08-11T05:56:21.969Z,56.39
2023-08-11T06:11:18.264Z,56.32
2023-08-11T06:16:20.258Z,56.60
2023-08-11T06:21:22.561Z,56.56
2023-08-11T06:26:24.611Z,56.17
2023-08-11T06:31:26.871Z,56.24
2023-08-11T06:36:31.139Z,56.36
2023-08-11T06:41:34.965Z,56.28
2023-08-11T06:46:38.121Z,56.18
2023-08-11T06:51:40.333Z,55.65
2023-08-11T06:56:42.417Z,55.27
2023-08-11T07:01:44.578Z,54.82
2023-08-11T07:06:47.299Z,53.91
2023-08-11T07:11:49.755Z,53.31
2023-08-11T07:16:55.192Z,52.61
2023-08-11T07:21:57.486Z,52.50
2023-08-11T07:26:59.744Z,51.50
2023-08-11T07:32:04.446Z,50.48
2023-08-11T07:37:09.904Z,50.28
2023-08-11T07:42:14.964Z,49.33
2023-08-11T07:47:17.064Z,49.01
2023-08-11T07:52:19.188Z,48.63
2023-08-11T07:57:21.292Z,47.94
2023-08-11T08:02:23.556Z,46.55
2023-08-11T08:07:25.655Z,46.69
2023-08-11T08:12:27.754Z,46.82
2023-08-11T08:17:36.395Z,44.83
2023-08-11T08:22:39.123Z,45.56
2023-08-11T08:27:41.914Z,45.23
2023-08-11T08:32:44.380Z,44.49
2023-08-11T08:37:46.618Z,45.02
2023-08-11T08:42:53.079Z,44.27
2023-08-11T08:47:58.552Z,44.23
2023-08-11T08:53:05.133Z,44.54
2023-08-11T08:58:10.420Z,44.86
2023-08-11T09:03:14.533Z,44.93
2023-08-11T09:08:21.598Z,45.77
2023-08-11T09:13:27.403Z,46.49
2023-08-11T09:18:30.650Z,47.57
2023-08-11T09:23:33.941Z,48.98
2023-08-11T09:28:38.576Z,49.52
2023-08-11T09:33:40.653Z,50.22
2023-08-11T09:38:50.168Z,51.75
2023-08-11T09:43:57.219Z,51.09
2023-08-11T09:49:02.312Z,52.02
2023-08-11T09:54:08.127Z,51.45
2023-08-11T09:59:20.493Z,51.59
2023-08-11T10:04:37.424Z,51.65
2023-08-11T10:09:40.593Z,52.29
2023-08-11T10:14:43.988Z,53.39
2023-08-11T10:19:46.466Z,52.72
2023-08-11T10:24:51.326Z,53.76
2023-08-11T10:29:55.213Z,54.26
2023-08-11T10:34:58.121Z,55.09
2023-08-11T10:40:08.557Z,54.26
2023-08-11T10:45:15.391Z,53.31
2023-08-11T10:50:19.407Z,52.51
2023-08-11T10:55:22.465Z,52.01
2023-08-11T11:00:24.753Z,51.82
2023-08-11T11:05:27.416Z,50.27
2023-08-11T11:10:43.451Z,48.84
2023-08-11T11:15:51.170Z,49.17
2023-08-11T11:20:54.503Z,48.94
2023-08-11T11:25:56.630Z,48.82
2023-08-11T11:30:58.904Z,48.46
2023-08-11T11:36:01.103Z,47.96
2023-08-11T11:41:03.540Z,47.06
2023-08-11T11:46:15.714Z,47.00
2023-08-11T11:51:25.861Z,48.88
2023-08-11T11:56:31.850Z,49.84
2023-08-11T12:01:36.493Z,50.66
2023-08-11T12:06:38.532Z,51.07
2023-08-11T12:11:40.759Z,51.08
2023-08-11T12:16:45.453Z,52.04
2023-08-11T12:21:53.298Z,51.92
2023-08-11T12:26:56.493Z,52.77
2023-08-11T12:31:59.100Z,54.53
2023-08-11T12:37:01.215Z,53.81
2023-08-11T12:42:03.669Z,54.54
2023-08-11T12:47:06.831Z,55.05
2023-08-11T12:52:09.324Z,56.35
2023-08-11T12:57:11.650Z,56.65
2023-08-11T13:02:15.239Z,56.78
2023-08-11T13:07:19.118Z,56.80
2023-08-11T13:12:21.408Z,55.86
2023-08-11T13:17:23.812Z,55.48
2023-08-11T13:22:26.237Z,55.20
2023-08-11T13:27:33.360Z,53.95
2023-08-11T13:32:35.631Z,54.28
2023-08-11T13:37:38.244Z,53.55
2023-08-11T13:42:43.112Z,52.68
2023-08-11T13:47:45.795Z,52.27
2023-08-11T13:52:47.971Z,51.80
2023-08-11T13:57:50.264Z,52.18
2023-08-11T14:02:52.311Z,51.26
2023-08-11T14:07:54.326Z,51.56
2023-08-11T14:12:56.470Z,51.63
2023-08-11T14:17:58.566Z,51.58
2023-08-11T14:23:00.732Z,51.26
2023-08-11T14:28:04.056Z,52.00
2023-08-11T14:33:06.438Z,50.09
2023-08-11T14:38:08.589Z,51.34
2023-08-11T14:43:12.592Z,49.65
2023-08-11T14:48:16.875Z,49.50
2023-08-11T14:53:22.590Z,49.50
2023-08-11T14:58:24.670Z,50.84
2023-08-11T15:03:31.866Z,51.10
2023-08-11T15:08:35.485Z,51.22
2023-08-11T15:13:38.196Z,51.75
2023-08-11T15:18:41.856Z,51.01
2023-08-11T15:23:43.938Z,51.45
2023-08-11T15:28:46.236Z,49.75
2023-08-11T15:33:48.391Z,50.46
2023-08-11T15:38:54.411Z,51.84
2023-08-11T15:43:56.500Z,51.58
2023-08-11T15:48:58.949Z,51.62
2023-08-11T15:54:01.309Z,51.93
2023-08-11T15:59:06.912Z,51.03
2023-08-11T16:04:09.890Z,51.35
2023-08-11T16:09:14.486Z,51.34
2023-08-11T16:14:19.409Z,52.09
2023-08-11T16:19:25.159Z,50.84
2023-08-11T16:24:27.364Z,51.26
2023-08-11T16:29:29.901Z,51.82
2023-08-11T16:34:34.533Z,52.44
2023-08-11T16:39:36.667Z,52.27
2023-08-11T16:44:39.771Z,52.77
2023-08-11T16:49:42.023Z,53.75
2023-08-11T16:54:49.993Z,53.74
2023-08-11T16:59:53.052Z,54.40
2023-08-11T17:04:55.194Z,55.39
2023-08-11T17:10:01.863Z,55.77
2023-08-11T17:15:04.720Z,56.68
2023-08-11T17:20:11.586Z,56.74
2023-08-11T17:25:16.444Z,56.21
2023-08-11T17:30:18.958Z,56.94
2023-08-11T17:35:22.008Z,58.13
2023-08-11T17:40:24.154Z,58.28
2023-08-11T17:45:26.552Z,58.84
2023-08-11T17:50:35.082Z,59.91
2023-08-11T17:55:37.346Z,60.69
2023-08-11T18:00:50.350Z,61.94
2023-08-11T18:05:53.309Z,61.02
2023-08-11T18:10:56.096Z,61.29
2023-08-11T18:15:58.177Z,61.62
2023-08-11T18:21:02.404Z,62.68
2023-08-11T18:26:10.365Z,62.82
2023-08-11T18:31:13.138Z,63.94
2023-08-11T18:36:18.074Z,64.55
2023-08-11T18:41:21.488Z,65.62
2023-08-11T18:46:23.602Z,65.97
2023-08-11T18:51:26.105Z,67.04
2023-08-11T18:56:28.364Z,68.13
2023-08-11T19:01:30.454Z,68.10
2023-08-11T19:06:34.022Z,69.27
2023-08-11T19:11:36.383Z,70.42
2023-08-11T19:16:40.913Z,70.22
2023-08-11T19:21:45.150Z,70.91
2023-08-11T19:26:47.337Z,72.10
2023-08-11T19:31:49.804Z,72.39
2023-08-11T19:36:52.010Z,72.84
2023-08-11T19:41:54.079Z,73.06
2023-08-11T19:46:56.346Z,73.34
2023-08-11T19:51:58.656Z,73.64
2023-08-11T19:57:08.245Z,73.88
2023-08-11T20:02:12.270Z,74.38
2023-08-11T20:07:14.493Z,74.43
2023-08-11T20:12:16.698Z,74.45
2023-08-11T20:17:18.953Z,75.04
2023-08-11T20:22:21.198Z,74.79
2023-08-11T20:27:23.421Z,74.62
2023-08-11T20:32:25.778Z,74.69
2023-08-11T20:37:28.080Z,74.24
2023-08-11T20:42:30.235Z,74.17
2023-08-11T20:47:32.651Z,73.32
2023-08-11T20:52:34.844Z,71.93
2023-08-11T20:57:36.889Z,71.69
2023-08-11T21:02:39.034Z,71.67
2023-08-11T21:07:48.593Z,71.85
2023-08-11T21:12:50.722Z,72.81
2023-08-11T21:17:54.258Z,73.04
2023-08-11T21:22:56.501Z,73.75
2023-08-11T21:27:58.804Z,73.82
2023-08-11T21:33:01.246Z,75.05
2023-08-11T21:38:04.022Z,75.54
2023-08-11T21:43:06.310Z,75.65
2023-08-11T21:48:09.565Z,76.42
2023-08-11T21:53:22.531Z,76.42
2023-08-11T21:58:25.935Z,76.70
2023-08-11T22:03:28.043Z,76.38
2023-08-11T22:08:30.304Z,76.24
2023-08-11T22:13:32.570Z,75.82
2023-08-11T22:18:34.611Z,75.54
2023-08-11T22:23:36.687Z,77.60
2023-08-11T22:28:40.380Z,78.55
2023-08-11T22:33:42.778Z,77.75
2023-08-11T22:38:45.066Z,78.21
2023-08-11T22:43:47.145Z,77.45
2023-08-11T22:48:54.474Z,77.53
2023-08-11T22:53:56.608Z,77.17
2023-08-11T22:58:58.899Z,76.54
2023-08-11T23:04:04.459Z,75.77
2023-08-11T23:09:09.287Z,75.08
2023-08-11T23:14:18.613Z,71.17
2023-08-11T23:19:29.623Z,69.80
2023-08-11T23:24:34.829Z,69.15
2023-08-11T23:31:24.026Z,69.32
2023-08-11T23:36:39.539Z,68.90
2023-08-11T23:42:21.745Z,67.56
